Flight Track Log - Related Links

Times and Time Zones

All times are in EDT time to prevent confusion due to time zone crossing. See the N9003S flight status page for this flight to view local times or setup timezone preferences in your user account.

Time Position Orientation Groundspeed Altitude Reporting Facility
EDT Latitude Longitude Course Direction KTS MPH feet Rate Location/Type
Sun 05:44:37 PM 41.3139 -72.0642 242° Southwest 114 131 700  Level Boston Center
Sun 05:45:25 PM 41.3017 -72.0947 242° Southwest 128 147 1,800 1,190 Climbing Boston Center
Sun 05:46:38 PM 41.3017 -72.1500 270° West 126 145 3,100 851 Climbing Boston Center
Sun 05:47:39 PM 41.3019 -72.2081 270° West 150 173 3,700 833 Climbing Boston Center
Sun 05:49:38 PM 41.3000 -72.2833 268° West 118 136 5,600 771 Climbing New York TRACON
Sun 05:50:38 PM 41.3000 -72.3333 270° West 137 158 6,000 250 Climbing New York TRACON
Sun 05:51:38 PM 41.2833 -72.4000 252° West 166 191 6,100 -50 Climbing New York TRACON
Sun 05:52:38 PM 41.2833 -72.4667 270° West 177 204 5,900 -48 Descending New York TRACON
Sun 05:53:44 PM 41.2667 -72.5333 252° West 173 199 6,000 100 Climbing New York TRACON
Sun 05:54:38 PM 41.2500 -72.5833 246° West 170 196 6,100  Climbing New York TRACON
Sun 05:55:38 PM 41.2500 -72.6500 270° West 176 203 6,000 -400 Descending New York TRACON
Sun 05:56:38 PM 41.2333 -72.7167 252° West 186 214 5,300 -750 Descending New York TRACON
Sun 05:57:38 PM 41.2333 -72.7833 270° West 180 207 4,500 -650 Descending New York TRACON
Sun 05:58:38 PM 41.2167 -72.8333 246° West 174 200 4,000 -250 Descending New York TRACON
Sun 05:59:38 PM 41.2000 -72.9000 252° West 171 197 4,000  Level New York TRACON
Sun 06:00:38 PM 41.2000 -72.9500 270° West 169 194 4,000  Level New York TRACON
Sun 06:01:38 PM 41.1833 -73.0167 252° West 172 198 4,000  Level New York TRACON
Sun 06:02:38 PM 41.1667 -73.0833 252° West 169 194 4,000 -50 Level New York TRACON
Sun 06:03:38 PM 41.1667 -73.1333 270° West 172 198 3,900  Descending New York TRACON
Sun 06:04:38 PM 41.1667 -73.2000 270° West 169 194 4,000  Climbing New York TRACON
Sun 06:05:38 PM 41.1667 -73.2667 270° West 172 198 3,900  Descending New York TRACON
Sun 06:06:38 PM 41.1833 -73.3333 288° West 169 194 4,000 50 Climbing New York TRACON
Sun 06:07:38 PM 41.1833 -73.3833 270° West 169 194 4,000  Level New York TRACON
Sun 06:08:38 PM 41.1833 -73.4500 270° West 168 193 4,000 -450 Level New York TRACON
Sun 06:09:38 PM 41.1833 -73.5167 270° West 177 204 3,100 -450 Descending New York TRACON
Sun 06:10:38 PM 41.2000 -73.5667 294° West 159 183 3,100  Level New York TRACON
Sun 06:11:38 PM 41.2000 -73.6333 270° West 150 173 3,100 -350 Level New York TRACON
Sun 06:12:38 PM 41.2000 -73.6833 270° West 145 167 2,400 -500 Descending New York TRACON
Sun 06:13:38 PM 41.2000 -73.7333 270° West 145 167 2,100 -200 Descending New York TRACON
Sun 06:14:38 PM 41.2000 -73.7833 270° West 132 152 2,000  Descending New York TRACON
Sun 06:15:38 PM 41.1667 -73.7833 180° South 106 122 2,100 -50 Climbing New York TRACON
Sun 06:16:38 PM 41.1333 -73.7667 159° South 105 121 1,900 -350 Descending New York TRACON
Sun 06:17:38 PM 41.1167 -73.7500 143° Southeast 98 113 1,400 -500 Descending New York TRACON
Sun 06:18:38 PM 41.0833 -73.7167 143° Southeast 95 109 900 -500 Descending New York TRACON
Sun 06:20:00 PM 41.0667 -73.7000 229° Southwest  Level FlightAware Approximate
Sun 06:27:00 PM 41.0669 -73.7076 229° Southwest  Level Estimated
Sun 06:28:00 PM 41.0667 -73.7000 229° Southwest  Level FlightAware Approximate

Login

Don't have an account? Register now (free) for customized features, flight alerts, and more!